Time;durP1;ratioP1;P1;durP2;ratioP2;P2;SDS_P1;SDS_P2;PMS_P1;PMS_P2;Temp;Humidity;BMP_temperature;BMP_pressure;BME280_temperature;BME280_humidity;BME280_pressure;Samples;Min_cycle;Max_cycle;Signal;HPM_P1;HPM_P2
2023/07/10 00:07:23;;;;;;;9.10;5.85;;;;;;;24.20;42.00;101431.03;15374025;28;20055;-50
2023/07/10 00:14:57;;;;;;;7.55;5.68;;;;;;;24.25;41.90;101433.78;15373988;28;20243;-46
2023/07/10 00:22:30;;;;;;;7.25;5.60;;;;;;;24.07;43.26;101427.03;15372803;28;20516;-49
2023/07/10 00:30:14;;;;;;;7.72;5.50;;;;;;;23.86;43.07;101451.00;15372138;28;20110;-47
2023/07/10 00:37:49;;;;;;;7.82;4.97;;;;;;;23.21;44.26;101466.56;15372102;28;20362;-48
2023/07/10 00:45:23;;;;;;;9.50;5.70;;;;;;;22.35;44.65;101509.22;15369848;28;20465;-47
2023/07/10 00:52:58;;;;;;;11.45;5.43;;;;;;;22.71;44.18;101539.41;15371734;28;20055;-47
2023/07/10 01:00:34;;;;;;;7.70;5.53;;;;;;;23.27;41.37;101535.84;15370622;29;20070;-48
2023/07/10 01:08:08;;;;;;;13.45;5.30;;;;;;;23.81;41.47;101514.09;15370418;28;20102;-54
2023/07/10 01:15:42;;;;;;;7.72;5.50;;;;;;;23.89;41.61;101523.66;15369005;28;20039;-48
2023/07/10 01:23:17;;;;;;;7.93;5.45;;;;;;;24.04;41.64;101514.53;15369282;28;20071;-52
2023/07/10 01:30:53;;;;;;;6.75;5.10;;;;;;;24.06;42.46;101480.25;15368844;28;20067;-51
2023/07/10 01:38:35;;;;;;;8.32;5.18;;;;;;;24.11;40.99;101461.03;15367576;28;20063;-49
2023/07/10 01:46:19;;;;;;;14.70;5.68;;;;;;;22.81;45.68;101429.91;15367169;29;20046;-49
2023/07/10 01:53:53;;;;;;;7.50;5.53;;;;;;;23.29;44.30;101407.66;15368131;28;20492;-50
2023/07/10 02:01:26;;;;;;;8.43;5.55;;;;;;;23.20;45.69;101395.63;15367054;29;20051;-52
2023/07/10 02:09:00;;;;;;;8.18;5.50;;;;;;;22.42;46.28;101388.59;15367622;28;20142;-50
2023/07/10 02:16:34;;;;;;;8.55;5.78;;;;;;;22.28;46.82;101365.63;15365130;28;20074;-47
2023/07/10 02:24:09;;;;;;;15.60;5.72;;;;;;;22.66;44.77;101361.47;15366380;28;20151;-51
2023/07/10 02:31:41;;;;;;;10.38;5.80;;;;;;;23.25;45.19;101360.00;15364478;29;20409;-48
2023/07/10 02:39:15;;;;;;;8.07;5.93;;;;;;;22.37;46.66;101355.78;15380592;28;20071;-46
2023/07/10 02:46:48;;;;;;;8.13;6.03;;;;;;;23.14;45.27;101353.75;15365101;28;20058;-50
2023/07/10 02:54:22;;;;;;;10.38;6.20;;;;;;;23.03;44.94;101338.44;15366380;28;20137;-49
2023/07/10 03:01:57;;;;;;;9.63;5.90;;;;;;;23.05;45.61;101323.38;15363127;28;20043;-51
2023/07/10 03:09:31;;;;;;;9.50;5.82;;;;;;;22.05;45.72;101295.84;15362503;29;20051;-49
2023/07/10 03:17:06;;;;;;;9.40;5.68;;;;;;;22.61;46.21;101290.34;15361958;29;20070;-48
2023/07/10 03:24:40;;;;;;;7.03;5.72;;;;;;;22.73;47.26;101292.78;15361311;28;20239;-51
2023/07/10 03:32:13;;;;;;;11.45;5.82;;;;;;;22.47;44.64;101292.03;15360468;28;20187;-48
2023/07/10 03:39:48;;;;;;;9.65;5.70;;;;;;;22.71;46.02;101289.50;15363545;28;20416;-49
2023/07/10 03:47:22;;;;;;;7.93;5.45;;;;;;;22.49;45.28;101298.88;15362489;28;20496;-47
2023/07/10 03:54:55;;;;;;;;;;;;;;;22.34;45.61;101286.03;15360819;28;20106;-51
2023/07/10 04:02:28;;;;;;;9.18;5.65;;;;;;;22.58;45.16;101264.38;15361597;28;19934;-47
2023/07/10 04:10:04;;;;;;;10.80;5.20;;;;;;;22.20;46.18;101254.06;15362409;28;20055;-49
2023/07/10 04:17:37;;;;;;;8.23;5.25;;;;;;;22.26;46.22;101245.56;15363271;28;20036;-48
2023/07/10 04:25:11;;;;;;;8.10;5.47;;;;;;;22.26;47.21;101220.13;15361206;28;20047;-50
2023/07/10 04:32:45;;;;;;;9.10;5.15;;;;;;;22.24;46.16;101236.00;15345927;29;20077;-49
2023/07/10 04:40:23;;;;;;;19.60;5.30;;;;;;;22.82;45.70;101253.63;15365502;28;20047;-49
2023/07/10 04:47:56;;;;;;;7.50;5.22;;;;;;;23.02;44.82;101282.03;15372968;28;20094;-55
2023/07/10 04:55:31;;;;;;;11.90;5.75;;;;;;;22.76;52.69;101262.97;15373904;28;20153;-46
2023/07/10 05:03:06;;;;;;;11.65;5.90;;;;;;;22.07;52.71;101253.50;15372080;28;20206;-48
2023/07/10 05:10:43;;;;;;;11.77;6.18;;;;;;;22.30;56.75;101292.34;15371042;29;20368;-48
2023/07/10 05:18:18;;;;;;;13.48;6.90;;;;;;;19.99;63.38;101488.66;15371011;28;20477;-51
2023/07/10 05:25:57;;;;;;;12.35;6.38;;;;;;;19.73;60.13;101493.00;15369909;28;20048;-46
2023/07/10 05:33:31;;;;;;;12.00;6.45;;;;;;;20.43;58.58;101446.88;15368578;28;20119;-47
2023/07/10 05:41:06;;;;;;;10.57;7.38;;;;;;;21.15;61.67;101432.72;15351727;28;20043;-44
2023/07/10 05:48:39;;;;;;;15.45;8.02;;;;;;;21.24;63.72;101409.28;15368722;29;20117;-48
2023/07/10 05:56:13;;;;;;;17.23;8.60;;;;;;;20.37;68.46;101383.28;15368725;28;20051;-51
2023/07/10 06:03:46;;;;;;;13.35;8.05;;;;;;;20.05;64.70;101280.53;15368729;28;20067;-50
2023/07/10 06:11:25;;;;;;;15.88;9.27;;;;;;;19.94;66.15;101250.72;15369106;28;20616;-48
2023/07/10 06:18:58;;;;;;;16.38;9.50;;;;;;;20.11;67.56;101287.66;15368330;28;20138;-51
2023/07/10 06:26:32;;;;;;;12.32;8.35;;;;;;;19.65;69.25;101272.00;15367957;28;20106;-45
2023/07/10 06:34:05;;;;;;;35.47;22.80;;;;;;;19.97;68.72;101285.63;15366883;28;20047;-47
2023/07/10 06:41:39;;;;;;;10.50;8.25;;;;;;;20.22;66.31;101258.56;15366550;28;20047;-47
2023/07/10 06:49:18;;;;;;;12.38;8.10;;;;;;;20.54;65.09;101249.53;15348461;29;20446;-48
2023/07/10 06:56:53;;;;;;;12.95;8.50;;;;;;;20.96;65.15;101265.03;15380917;28;20094;-48
2023/07/10 07:04:26;;;;;;;12.10;7.93;;;;;;;21.62;61.52;101276.16;15363605;28;20047;-47
2023/07/10 07:12:01;;;;;;;13.50;8.18;;;;;;;21.39;62.35;101261.91;15365260;28;20040;-51
2023/07/10 07:19:34;;;;;;;9.88;7.78;;;;;;;21.70;62.53;101270.16;15365249;28;20075;-54
2023/07/10 07:27:09;;;;;;;11.73;7.25;;;;;;;22.75;61.19;101264.03;15360491;28;20381;-48
2023/07/10 07:34:42;;;;;;;11.68;7.97;;;;;;;23.38;59.67;101263.50;15355954;29;20331;-45
2023/07/10 07:42:16;;;;;;;10.13;7.53;;;;;;;23.74;53.38;101258.66;15361740;28;20130;-49
2023/07/10 07:49:51;;;;;;;10.30;7.10;;;;;;;24.69;52.47;101260.75;15359139;28;20198;-45
2023/07/10 07:57:25;;;;;;;10.55;7.32;;;;;;;25.05;50.46;101278.75;15362102;28;20303;-45
2023/07/10 08:05:02;;;;;;;11.52;7.25;;;;;;;25.69;48.43;101264.38;15359158;28;20584;-47
2023/07/10 08:12:36;;;;;;;13.15;6.88;;;;;;;26.30;47.83;101246.03;15358642;28;20051;-45
2023/07/10 08:20:10;;;;;;;8.98;6.70;;;;;;;26.03;46.36;101260.56;15368255;28;20078;-51
2023/07/10 08:27:46;;;;;;;12.00;6.90;;;;;;;27.34;44.64;101255.50;15371359;28;20147;-49
2023/07/10 08:35:19;;;;;;;9.55;6.55;;;;;;;27.51;44.99;101251.25;15368985;28;20497;-46
2023/07/10 08:42:53;;;;;;;8.95;7.05;;;;;;;26.63;47.36;101246.81;15371528;28;20476;-44
2023/07/10 08:50:31;;;;;;;7.50;6.50;;;;;;;27.01;44.53;101262.28;15367180;29;20044;-54
2023/07/10 08:58:07;;;;;;;10.52;7.63;;;;;;;27.78;43.56;101259.44;15368910;28;20122;-47
2023/07/10 09:05:44;;;;;;;11.35;6.93;;;;;;;27.53;43.82;101255.34;15367308;28;20051;-49
2023/07/10 09:13:25;;;;;;;10.88;7.32;;;;;;;28.25;42.50;101254.38;15367420;28;20142;-49
2023/07/10 09:21:01;;;;;;;9.00;7.00;;;;;;;29.06;41.88;101254.09;15371593;28;20445;-52
2023/07/10 09:28:40;;;;;;;10.02;6.72;;;;;;;29.32;42.44;101245.81;15367752;28;20138;-51
2023/07/10 09:36:15;;;;;;;9.13;7.15;;;;;;;28.62;41.64;101235.72;15363526;28;20194;-54
2023/07/10 09:43:54;;;;;;;13.00;6.57;;;;;;;28.97;40.71;101231.94;15369561;28;20050;-52
2023/07/10 09:51:28;;;;;;;8.13;6.40;;;;;;;30.09;40.92;101223.94;15369587;28;20044;-53
2023/07/10 09:59:11;;;;;;;9.57;6.88;;;;;;;30.60;40.75;101234.00;15369381;28;20448;-48
2023/07/10 10:06:44;;;;;;;11.32;6.47;;;;;;;30.45;41.19;101223.47;15359316;28;20062;-52
2023/07/10 10:14:23;;;;;;;8.75;6.20;;;;;;;30.23;40.67;101222.59;15361774;28;20054;-48
2023/07/10 10:21:56;;;;;;;8.18;6.78;;;;;;;30.99;38.48;101218.16;15365737;28;20130;-49
2023/07/10 10:30:09;;;;;;;8.77;6.88;;;;;;;30.28;38.19;101182.03;15365048;28;20071;-50
2023/07/10 10:38:00;;;;;;;11.40;7.53;;;;;;;30.99;37.87;101195.97;15360774;28;20114;-51
2023/07/10 10:45:41;;;;;;;10.90;7.53;;;;;;;30.81;37.29;101198.03;15376795;28;20081;-47
2023/07/10 10:53:31;;;;;;;9.00;7.80;;;;;;;29.58;39.43;101204.34;15362401;28;20134;-48
2023/07/10 11:01:33;;;;;;;10.63;7.70;;;;;;;30.67;40.11;101194.69;15356669;28;20063;-49
2023/07/10 11:09:14;;;;;;;9.60;8.60;;;;;;;29.56;39.57;101206.59;15370009;23;20488;-53
2023/07/10 11:16:48;;;;;;;11.88;8.30;;;;;;;30.09;39.66;101202.59;15369542;28;20078;-53
2023/07/10 11:24:35;;;;;;;10.18;7.95;;;;;;;31.16;37.41;101206.13;15360788;28;20067;-45
2023/07/10 11:32:15;;;;;;;8.75;7.85;;;;;;;30.54;37.99;101213.16;15344815;29;20057;-47
2023/07/10 11:39:48;;;;;;;9.52;7.03;;;;;;;29.80;41.33;101224.63;15324826;29;20131;-51
2023/07/10 11:47:28;;;;;;;9.38;7.70;;;;;;;30.36;41.47;101218.00;15341719;29;20048;-50
2023/07/10 11:55:25;;;;;;;8.53;7.53;;;;;;;32.22;38.08;101222.25;15351334;28;20056;-52
2023/07/10 12:03:02;;;;;;;9.85;8.27;;;;;;;31.32;41.03;101218.25;15330287;28;20136;-49
2023/07/10 12:10:38;;;;;;;10.07;8.68;;;;;;;30.79;40.17;101222.53;15344245;29;20161;-47
2023/07/10 12:18:16;;;;;;;10.60;7.82;;;;;;;32.16;39.69;101212.53;15337300;28;20070;-47
2023/07/10 12:25:50;;;;;;;13.05;9.25;;;;;;;29.04;47.16;101247.22;15332855;28;20126;-51
2023/07/10 12:33:38;;;;;;;11.52;7.55;;;;;;;28.47;48.80;101262.63;15334558;29;20070;-51
2023/07/10 12:41:11;;;;;;;13.20;8.40;;;;;;;27.88;49.51;101253.66;15348158;28;20097;-52
2023/07/10 12:48:50;;;;;;;9.65;6.78;;;;;;;28.78;48.25;101266.50;15345644;29;20441;-54
2023/07/10 12:56:28;;;;;;;9.18;7.32;;;;;;;28.73;47.60;101267.47;15367856;28;20101;-52
2023/07/10 13:04:18;;;;;;;11.57;7.78;;;;;;;27.85;50.52;101272.81;15355849;28;20070;-48
2023/07/10 13:11:52;;;;;;;8.47;7.53;;;;;;;27.57;51.20;101294.16;15376995;29;20134;-51
2023/07/10 13:19:27;;;;;;;10.77;7.93;;;;;;;26.93;51.66;101327.19;15378123;28;20073;-52
2023/07/10 13:27:00;;;;;;;9.55;8.45;;;;;;;26.88;50.85;101322.59;15374979;29;20052;-47
2023/07/10 13:34:35;;;;;;;9.38;8.38;;;;;;;26.85;52.17;101330.66;15375776;29;20107;-50
2023/07/10 13:42:11;;;;;;;13.52;8.35;;;;;;;27.04;51.33;101347.06;15374627;29;20595;-49
2023/07/10 13:49:46;;;;;;;10.05;8.57;;;;;;;26.81;52.41;101355.22;15375335;28;20146;-51
2023/07/10 13:57:24;;;;;;;9.55;8.63;;;;;;;26.74;52.39;101357.56;15366158;28;20031;-46
2023/07/10 14:05:01;;;;;;;9.13;8.15;;;;;;;27.23;53.82;101353.31;15375883;28;20408;-45
2023/07/10 14:12:34;;;;;;;9.80;7.72;;;;;;;27.96;48.61;101323.84;15359495;28;20461;-45
2023/07/10 14:20:16;;;;;;;7.13;6.40;;;;;;;27.61;52.08;101362.16;15371505;28;20190;-48
2023/07/10 14:27:51;;;;;;;9.60;6.13;;;;;;;27.50;50.00;101362.69;15370243;28;20067;-52
2023/07/10 14:35:25;;;;;;;7.25;6.25;;;;;;;26.94;51.80;101337.06;15377095;28;20062;-46
2023/07/10 14:42:58;;;;;;;6.78;5.05;;;;;;;27.04;50.57;101342.38;15370971;28;20045;-49
2023/07/10 14:50:33;;;;;;;6.63;4.90;;;;;;;27.43;50.54;101341.88;15373339;28;20252;-47
2023/07/10 14:58:15;;;;;;;6.10;4.75;;;;;;;26.68;49.58;101342.28;15373269;28;20126;-47
2023/07/10 15:05:54;;;;;;;7.30;5.00;;;;;;;26.74;51.61;101335.53;15368877;28;20505;-48
2023/07/10 15:13:29;;;;;;;5.68;4.43;;;;;;;27.29;48.06;101323.72;15341163;28;20043;-48
2023/07/10 15:21:03;;;;;;;5.85;4.25;;;;;;;27.15;47.75;101324.56;15371358;28;20047;-49
2023/07/10 15:28:36;;;;;;;6.28;4.40;;;;;;;27.55;48.59;101324.78;15353095;29;20047;-49
2023/07/10 15:36:16;;;;;;;5.32;4.43;;;;;;;27.13;48.45;101323.22;15384416;28;20086;-49
2023/07/10 15:43:50;;;;;;;6.10;3.85;;;;;;;26.90;47.86;101320.34;15366638;28;20099;-59
2023/07/10 15:51:27;;;;;;;6.82;3.50;;;;;;;26.58;48.75;101307.50;15337008;29;20048;-52
2023/07/10 15:59:00;;;;;;;5.57;3.22;;;;;;;26.94;46.41;101312.28;15367805;28;20098;-45
2023/07/10 16:06:34;;;;;;;4.55;3.00;;;;;;;26.96;45.82;101316.38;15352415;28;20111;-52
2023/07/10 16:14:12;;;;;;;5.78;3.30;;;;;;;26.81;47.36;101311.16;15335260;28;20048;-45
2023/07/10 16:21:51;;;;;;;6.50;3.45;;;;;;;26.74;47.17;101309.94;15347841;28;20501;-55
2023/07/10 16:29:27;;;;;;;4.72;3.33;;;;;;;27.04;46.16;101319.53;15345395;29;20496;-50
2023/07/10 16:37:03;;;;;;;5.88;3.30;;;;;;;26.11;46.86;101325.06;15346550;28;20055;-47
2023/07/10 16:44:37;;;;;;;5.15;3.00;;;;;;;26.41;46.55;101326.50;15349571;29;20083;-52
2023/07/10 16:52:12;;;;;;;4.95;3.28;;;;;;;26.25;48.07;101323.16;15374725;28;20043;-49
2023/07/10 16:59:48;;;;;;;5.13;3.35;;;;;;;26.30;47.63;101336.88;15346851;28;20059;-51
2023/07/10 17:07:24;;;;;;;5.22;3.60;;;;;;;26.24;48.26;101335.31;15385530;23;20052;-53
2023/07/10 17:14:56;;;;;;;5.25;3.25;;;;;;;26.30;48.63;101328.63;15326025;29;20130;-47
2023/07/10 17:22:33;;;;;;;4.03;2.90;;;;;;;25.97;47.27;101330.50;15283040;29;20087;-52
2023/07/10 17:30:12;;;;;;;7.03;3.97;;;;;;;25.95;47.70;101335.50;15270324;29;20175;-56
2023/07/10 17:37:49;;;;;;;4.70;3.05;;;;;;;25.67;47.55;101335.34;15295017;29;20048;-52
2023/07/10 17:45:23;;;;;;;5.47;2.90;;;;;;;25.92;46.84;101336.91;15294070;29;20063;-56
2023/07/10 17:52:57;;;;;;;4.35;2.90;;;;;;;25.40;47.42;101343.41;15272586;29;20048;-50
2023/07/10 18:00:30;;;;;;;5.68;3.88;;;;;;;25.56;46.57;101330.31;15275364;29;20040;-55
2023/07/10 18:08:14;;;;;;;5.55;2.28;;;;;;;24.97;48.53;101334.31;15307421;28;20053;-54
2023/07/10 18:15:47;;;;;;;5.50;2.15;;;;;;;25.25;46.16;101338.13;15305534;29;20056;-55
2023/07/10 18:23:24;;;;;;;3.03;2.00;;;;;;;24.80;48.54;101335.59;15266502;29;20127;-56
2023/07/10 18:30:59;;;;;;;7.60;2.28;;;;;;;25.02;47.10;101346.06;15293999;29;20058;-50
2023/07/10 18:38:33;;;;;;;4.90;2.08;;;;;;;24.53;48.12;101341.66;15292127;29;20043;-53
2023/07/10 18:46:08;;;;;;;5.00;2.10;;;;;;;25.08;48.09;101361.41;15276630;29;20059;-55
2023/07/10 18:53:44;;;;;;;4.47;1.98;;;;;;;25.06;47.50;101360.03;15284578;29;20051;-53
2023/07/10 19:01:20;;;;;;;5.20;2.45;;;;;;;24.68;49.43;101359.91;15287984;29;20515;-55
2023/07/10 19:08:55;;;;;;;4.63;2.17;;;;;;;24.91;48.97;101369.28;15284430;29;20058;-51
2023/07/10 19:16:31;;;;;;;4.50;2.17;;;;;;;24.80;48.97;101370.47;15281783;29;20511;-53
2023/07/10 19:24:15;;;;;;;4.07;2.55;;;;;;;24.70;49.02;101385.13;15317058;29;20433;-51
2023/07/10 19:31:52;;;;;;;12.70;9.65;;;;;;;24.35;49.99;101398.03;15304178;29;20126;-52
2023/07/10 19:39:29;;;;;;;5.72;3.05;;;;;;;24.19;50.96;101391.81;15267739;29;20055;-53
2023/07/10 19:47:01;;;;;;;7.13;2.58;;;;;;;24.10;50.70;101396.28;15286290;29;20040;-51
2023/07/10 19:54:36;;;;;;;4.57;2.33;;;;;;;24.02;50.71;101402.38;15279630;29;20139;-53
2023/07/10 20:02:13;;;;;;;4.63;2.42;;;;;;;23.86;51.12;101401.66;15272045;29;20107;-50
2023/07/10 20:09:48;;;;;;;5.20;2.58;;;;;;;23.56;52.42;101421.78;15288900;29;20052;-48
2023/07/10 20:17:33;;;;;;;4.35;2.55;;;;;;;23.59;52.09;101421.22;15294530;29;20122;-56
2023/07/10 20:25:08;;;;;;;4.82;2.70;;;;;;;23.39;53.23;101429.53;15289859;29;20575;-51
2023/07/10 20:32:41;;;;;;;5.85;2.90;;;;;;;23.15;53.72;101432.06;15298240;29;20091;-51
2023/07/10 20:40:19;;;;;;;4.88;2.63;;;;;;;22.87;54.18;101425.25;15313933;29;20143;-52
2023/07/10 20:47:52;;;;;;;5.07;2.88;;;;;;;22.95;53.93;101434.84;15271428;29;20036;-53
2023/07/10 20:55:27;;;;;;;5.32;3.03;;;;;;;22.77;54.60;101449.91;15320444;29;20048;-54
2023/07/10 21:03:00;;;;;;;8.07;3.40;;;;;;;22.63;55.93;101463.31;15282639;29;20052;-52
2023/07/10 21:10:34;;;;;;;3.65;2.78;;;;;;;22.41;55.78;101455.34;15298093;29;20051;-55
2023/07/10 21:18:11;;;;;;;7.80;3.08;;;;;;;22.25;56.53;101457.25;15289088;29;20080;-54
2023/07/10 21:25:45;;;;;;;5.82;3.30;;;;;;;22.04;57.58;101458.25;15276627;29;20047;-53
2023/07/10 21:33:22;;;;;;;5.28;3.30;;;;;;;21.87;57.93;101459.31;15296038;29;20052;-55
2023/07/10 21:41:01;;;;;;;4.75;3.17;;;;;;;21.67;58.29;101470.16;15274802;29;20047;-54
2023/07/10 21:48:34;;;;;;;8.63;3.78;;;;;;;21.72;57.61;101485.75;15282506;29;20052;-56
2023/07/10 21:56:15;;;;;;;5.18;3.38;;;;;;;21.71;57.88;101474.00;15297498;29;20056;-51
2023/07/10 22:03:49;;;;;;;5.53;2.85;;;;;;;21.43;57.95;101480.69;15287935;29;20509;-51
2023/07/10 22:11:26;;;;;;;5.32;2.90;;;;;;;21.52;56.66;101481.00;15273033;29;20397;-54
2023/07/10 22:19:01;;;;;;;7.85;2.75;;;;;;;21.50;56.07;101494.13;15281428;29;20040;-53
2023/07/10 22:26:38;;;;;;;5.65;2.78;;;;;;;21.45;56.27;101488.59;15307213;29;20060;-51
2023/07/10 22:34:11;;;;;;;4.53;2.72;;;;;;;21.48;56.60;101490.81;15278800;29;20123;-48
2023/07/10 22:41:46;;;;;;;5.28;3.00;;;;;;;21.33;56.59;101476.00;15292431;29;20052;-55
2023/07/10 22:49:19;;;;;;;7.57;3.22;;;;;;;21.07;57.37;101471.41;15281601;29;20058;-49
2023/07/10 22:56:53;;;;;;;6.53;3.40;;;;;;;21.01;57.56;101481.47;15269882;29;20040;-48
2023/07/10 23:04:25;;;;;;;8.60;3.20;;;;;;;20.81;58.41;101490.34;15328922;23;20129;-51
2023/07/10 23:12:00;;;;;;;5.82;3.10;;;;;;;20.62;59.05;101495.34;15432423;28;20051;-51
2023/07/10 23:19:33;;;;;;;8.10;3.08;;;;;;;20.58;59.32;101498.88;15433505;28;20050;-49
2023/07/10 23:27:09;;;;;;;;;;;;;;;20.22;60.43;101497.63;15432661;28;20105;-50
2023/07/10 23:34:45;;;;;;;6.43;3.33;;;;;;;20.11;60.40;101494.00;15432869;28;19926;-55
2023/07/10 23:42:21;;;;;;;5.80;3.20;;;;;;;19.96;61.08;101502.81;15432620;28;20045;-52
2023/07/10 23:49:53;;;;;;;6.82;3.50;;;;;;;19.63;62.36;101495.56;15430608;28;20051;-53
2023/07/10 23:57:27;;;;;;;;;;;;;;;19.53;62.25;101495.38;15432643;28;20096;-50
